Time;durP1;ratioP1;P1;durP2;ratioP2;P2;SDS_P1;SDS_P2;PMS_P1;PMS_P2;Temp;Humidity;BMP_temperature;BMP_pressure;BME280_temperature;BME280_humidity;BME280_pressure;Samples;Min_cycle;Max_cycle;Signal;HPM_P1;HPM_P2
2021/11/28 00:00:44;;;;;;;19.60;7.80;;;;;;;10.63;76.49;98463.40;24424;1355;3026647;-71
2021/11/28 00:03:15;;;;;;;15.50;6.50;;;;;;;10.98;75.85;98468.90;24469;1359;3051722;-66
2021/11/28 00:05:51;;;;;;;16.30;7.70;;;;;;;11.31;74.59;98463.52;24491;1359;3026595;-68
2021/11/28 00:15:59;;;;;;;14.60;9.10;;;;;;;10.90;75.01;98460.96;24454;1356;3059046;-69
2021/11/28 00:18:30;;;;;;;17.00;7.90;;;;;;;10.73;76.14;98466.80;24445;1359;3027941;-73
2021/11/28 00:20:59;;;;;;;13.30;6.50;;;;;;;11.15;75.27;98466.70;24464;1360;3026916;-69
2021/11/28 00:23:34;;;;;;;16.10;7.50;;;;;;;11.54;73.57;98459.98;24470;1361;3059380;-71
2021/11/28 00:26:04;;;;;;;20.90;9.40;;;;;;;11.47;73.62;98460.33;24409;1354;3027869;-69
2021/11/28 00:28:33;;;;;;;22.50;9.40;;;;;;;11.31;74.12;98458.23;24494;1360;3052699;-72
2021/11/28 00:31:03;;;;;;;18.70;9.40;;;;;;;11.06;74.87;98454.45;24489;1359;3026460;-72
2021/11/28 00:33:34;;;;;;;17.30;8.90;;;;;;;10.81;75.86;98460.81;24489;1355;3026524;-72
2021/11/28 00:36:03;;;;;;;19.10;7.40;;;;;;;10.48;77.24;98461.71;24473;1355;3026820;-67
2021/11/28 00:38:33;;;;;;;17.20;6.80;;;;;;;10.87;76.32;98460.51;24521;1360;3056806;-73
2021/11/28 00:41:02;;;;;;;15.20;7.80;;;;;;;10.91;76.14;98451.83;24449;1360;3026716;-74
2021/11/28 00:43:32;;;;;;;15.80;8.00;;;;;;;11.07;75.31;98441.80;24443;1354;3054796;-75
2021/11/28 00:46:01;;;;;;;17.60;10.30;;;;;;;10.89;75.61;98441.08;24482;1359;3026917;-70
2021/11/28 00:48:31;;;;;;;18.30;10.00;;;;;;;10.60;76.63;98444.39;24466;1355;3052082;-73
2021/11/28 00:54:01;;;;;;;16.10;6.90;;;;;;;10.25;78.47;98448.56;24446;1362;3050844;-71
2021/11/28 00:56:30;;;;;;;16.10;8.20;;;;;;;10.61;77.38;98443.89;24465;1357;3026129;-66
2021/11/28 00:58:59;;;;;;;21.70;11.20;;;;;;;10.88;76.33;98442.21;24402;1360;3068126;-67
2021/11/28 01:01:28;;;;;;;27.60;12.50;;;;;;;10.90;76.16;98439.27;24452;1354;3026300;-70
2021/11/28 01:03:58;;;;;;;25.40;13.20;;;;;;;10.71;76.47;98434.09;24443;1355;3054147;-69
2021/11/28 01:06:27;;;;;;;24.40;15.00;;;;;;;10.52;77.33;98434.50;24460;1354;3026523;-69
2021/11/28 01:08:56;;;;;;;27.00;15.60;;;;;;;10.25;78.32;98437.70;24469;1351;3051368;-74
2021/11/28 01:11:40;;;;;;;22.50;8.60;;;;;;;10.13;79.09;98440.02;24450;1362;3055183;-68
2021/11/28 01:14:10;;;;;;;16.20;9.30;;;;;;;10.54;77.73;98435.16;24430;1354;3028562;-72
2021/11/28 01:16:43;;;;;;;20.70;10.20;;;;;;;10.89;76.25;98430.57;24470;1360;3026487;-71
2021/11/28 01:19:23;;;;;;;21.60;10.70;;;;;;;10.61;76.85;98428.52;24475;1359;3057250;-70
2021/11/28 01:22:00;;;;;;;20.60;11.20;;;;;;;10.50;77.29;98426.89;24434;1354;3027639;-67
2021/11/28 01:24:31;;;;;;;21.80;12.60;;;;;;;10.32;77.85;98425.13;24429;1360;3048960;-69
2021/11/28 01:27:05;;;;;;;22.70;12.40;;;;;;;10.06;78.76;98430.16;24440;1353;3026722;-69
2021/11/28 01:29:35;;;;;;;15.90;8.00;;;;;;;9.96;79.28;98435.30;24482;1360;3050983;-70
2021/11/28 01:32:05;;;;;;;17.70;7.60;;;;;;;10.50;77.85;98428.27;24462;1353;3026372;-67
2021/11/28 01:34:35;;;;;;;19.30;8.80;;;;;;;10.88;76.06;98429.02;24457;1360;3027629;-74
2021/11/28 01:37:06;;;;;;;18.70;9.10;;;;;;;10.89;75.77;98428.16;24487;1354;3026548;-70
2021/11/28 01:39:35;;;;;;;24.90;10.60;;;;;;;10.56;76.88;98435.38;24490;1354;3026435;-68
2021/11/28 01:42:05;;;;;;;19.20;9.50;;;;;;;10.33;77.89;98434.63;24465;1360;3049259;-73
2021/11/28 01:44:35;;;;;;;18.70;10.00;;;;;;;10.20;78.08;98431.05;24426;1355;3026989;-69
2021/11/28 01:47:04;;;;;;;16.80;8.20;;;;;;;9.90;78.74;98432.09;24434;1354;3028690;-69
2021/11/28 01:49:33;;;;;;;18.20;7.60;;;;;;;10.37;77.78;98425.60;24406;1357;3049293;-70
2021/11/28 01:52:07;;;;;;;20.70;9.70;;;;;;;10.66;76.55;98419.54;24407;1360;3026720;-69
2021/11/28 01:54:37;;;;;;;21.20;9.00;;;;;;;10.51;76.95;98420.52;24516;1354;3027048;-69
2021/11/28 01:57:06;;;;;;;22.90;10.30;;;;;;;10.28;77.42;98428.06;24425;1360;3029304;-67
2021/11/28 01:59:36;;;;;;;20.00;12.10;;;;;;;9.88;78.28;98429.91;24424;1360;3055545;-71
2021/11/28 02:02:05;;;;;;;16.90;10.10;;;;;;;9.71;79.21;98427.54;24413;1354;3029095;-67
2021/11/28 02:04:34;;;;;;;12.80;7.50;;;;;;;9.66;79.54;98433.52;24429;1354;3049942;-70
2021/11/28 02:07:03;;;;;;;18.60;9.50;;;;;;;9.98;78.56;98435.16;24440;1358;3026925;-70
2021/11/28 02:09:52;;;;;;;20.80;10.40;;;;;;;10.25;77.50;98440.52;24416;1354;3059129;-72
2021/11/28 02:12:29;;;;;;;18.70;9.00;;;;;;;10.20;77.28;98448.95;24422;1360;3026411;-67
2021/11/28 02:14:59;;;;;;;24.00;11.90;;;;;;;9.94;78.18;98453.14;24520;1354;3052952;-78
2021/11/28 02:17:28;;;;;;;29.60;13.00;;;;;;;9.74;79.23;98464.78;24460;1358;3026915;-72
2021/11/28 02:19:57;;;;;;;15.00;8.40;;;;;;;9.38;81.13;98464.85;24411;1360;3026539;-70
2021/11/28 02:22:26;;;;;;;21.60;10.40;;;;;;;9.68;80.62;98466.22;24434;1359;3056939;-68
2021/11/28 02:24:57;;;;;;;23.70;10.90;;;;;;;9.90;79.28;98459.38;24420;1360;3026172;-72
2021/11/28 02:27:27;;;;;;;24.70;12.10;;;;;;;9.87;79.17;98457.65;24393;1357;3026450;-70
2021/11/28 02:29:55;;;;;;;24.80;12.00;;;;;;;9.68;79.73;98463.58;24463;1360;3026482;-69
2021/11/28 02:32:25;;;;;;;19.50;12.00;;;;;;;9.54;80.31;98471.46;24445;1355;3053868;-70
2021/11/28 02:34:54;;;;;;;18.70;9.20;;;;;;;9.39;80.83;98471.98;24438;1354;3026483;-72
2021/11/28 02:37:23;;;;;;;18.50;8.80;;;;;;;9.71;80.21;98466.99;24460;1360;3057306;-65
2021/11/28 02:39:53;;;;;;;18.60;9.90;;;;;;;10.10;78.50;98454.89;24494;1351;3026921;-71
2021/11/28 02:42:22;;;;;;;18.00;9.80;;;;;;;10.03;78.56;98460.52;24449;1360;3027839;-66
2021/11/28 02:44:51;;;;;;;26.80;11.00;;;;;;;9.77;79.36;98469.60;24422;1357;3026629;-71
2021/11/28 02:47:21;;;;;;;15.50;10.20;;;;;;;9.38;81.17;98473.77;24406;1356;3049841;-70
2021/11/28 02:49:51;;;;;;;15.10;8.20;;;;;;;9.26;81.62;98475.14;24445;1359;3027252;-67
2021/11/28 02:52:20;;;;;;;16.00;9.10;;;;;;;9.64;80.61;98465.98;24402;1351;3026597;-71
2021/11/28 02:54:49;;;;;;;13.20;8.00;;;;;;;10.20;78.54;98460.48;24498;1361;3050416;-73
2021/11/28 02:57:18;;;;;;;19.90;10.10;;;;;;;10.05;78.15;98461.05;24448;1359;3026396;-71
2021/11/28 02:59:48;;;;;;;20.20;10.40;;;;;;;9.74;79.45;98464.38;24451;1358;3052477;-69
2021/11/28 03:02:17;;;;;;;20.60;10.40;;;;;;;9.59;80.03;98461.08;24391;1357;3026557;-69
2021/11/28 03:04:56;;;;;;;15.40;7.80;;;;;;;9.32;81.01;98465.67;24504;1353;3050133;-70
2021/11/28 03:07:26;;;;;;;16.30;9.50;;;;;;;9.62;80.40;98460.90;24457;1357;3026178;-67
2021/11/28 03:09:55;;;;;;;18.60;9.70;;;;;;;9.87;79.16;98457.48;24384;1357;3026901;-72
2021/11/28 03:12:24;;;;;;;21.60;11.20;;;;;;;9.91;78.79;98460.70;24463;1355;3049030;-68
2021/11/28 03:14:53;;;;;;;17.30;11.00;;;;;;;9.45;80.30;98473.47;24471;1358;3026492;-72
2021/11/28 03:17:23;;;;;;;18.90;11.00;;;;;;;9.16;81.85;98486.89;24441;1356;3054696;-71
2021/11/28 03:19:52;;;;;;;19.10;8.50;;;;;;;9.14;81.94;98485.95;24415;1361;3028311;-67
2021/11/28 03:22:21;;;;;;;18.90;9.50;;;;;;;9.58;80.41;98480.55;24446;1360;3054423;-72
2021/11/28 03:24:52;;;;;;;16.80;9.40;;;;;;;9.80;79.45;98485.11;24491;1351;3027257;-69
2021/11/28 03:27:21;;;;;;;18.30;9.90;;;;;;;9.97;78.64;98472.00;24420;1357;3026590;-71
2021/11/28 03:29:50;;;;;;;17.30;10.30;;;;;;;9.80;78.77;98485.66;24475;1354;3055543;-70
2021/11/28 03:32:55;;;;;;;16.30;10.10;;;;;;;9.37;80.48;98497.82;24313;1365;3057709;-65
2021/11/28 03:35:34;;;;;;;17.10;8.30;;;;;;;9.17;81.49;98505.33;24446;1360;3052545;-73
2021/11/28 03:38:03;;;;;;;14.30;8.40;;;;;;;9.58;80.47;98500.13;24442;1355;3026525;-68
2021/11/28 03:40:35;;;;;;;20.40;10.90;;;;;;;9.77;78.87;98490.40;24431;1360;3058957;-68
2021/11/28 03:43:06;;;;;;;19.30;10.40;;;;;;;9.67;78.99;98489.37;24424;1354;3026163;-68
2021/11/28 03:45:37;;;;;;;15.80;9.30;;;;;;;9.53;79.74;98490.70;24444;1358;3027825;-68
2021/11/28 03:48:11;;;;;;;17.20;10.00;;;;;;;9.33;80.61;98500.34;24457;1355;3054260;-70
2021/11/28 03:50:43;;;;;;;15.50;8.20;;;;;;;9.13;81.86;98503.71;24440;1356;3026242;-72
2021/11/28 03:53:13;;;;;;;14.80;7.70;;;;;;;9.66;80.21;98505.68;24440;1358;3030143;-70
2021/11/28 03:55:43;;;;;;;15.10;8.40;;;;;;;9.98;78.83;98507.95;24429;1354;3027338;-66
2021/11/28 03:58:12;;;;;;;13.50;8.40;;;;;;;9.96;78.35;98497.10;24436;1357;3026293;-70
2021/11/28 04:00:44;;;;;;;17.40;9.40;;;;;;;9.85;78.46;98504.15;24496;1360;3026855;-71
2021/11/28 04:03:13;;;;;;;15.80;9.30;;;;;;;9.47;80.11;98515.84;24417;1357;3028281;-73
2021/11/28 04:05:43;;;;;;;10.60;6.80;;;;;;;9.39;80.80;98514.59;24440;1354;3026740;-69
2021/11/28 04:08:12;;;;;;;12.90;7.10;;;;;;;9.73;79.64;98506.95;24374;1357;3026904;-70
2021/11/28 04:10:41;;;;;;;16.20;8.30;;;;;;;9.96;78.69;98503.34;24414;1355;3026133;-75
2021/11/28 04:13:11;;;;;;;16.80;8.10;;;;;;;9.89;78.55;98507.55;24462;1357;3052448;-66
2021/11/28 04:15:41;;;;;;;13.60;8.50;;;;;;;9.64;79.70;98517.39;24433;1362;3027412;-65
2021/11/28 04:18:18;;;;;;;13.90;8.50;;;;;;;9.38;80.58;98525.14;24460;1360;3071328;-68
2021/11/28 04:20:48;;;;;;;15.90;7.40;;;;;;;9.35;81.11;98525.88;24431;1359;3026515;-71
2021/11/28 04:23:17;;;;;;;14.00;7.50;;;;;;;9.59;80.23;98523.84;24429;1355;3026230;-64
2021/11/28 04:25:48;;;;;;;19.30;8.80;;;;;;;9.76;79.52;98525.13;24410;1357;3028887;-72
2021/11/28 04:28:18;;;;;;;17.10;8.70;;;;;;;9.51;80.13;98525.16;24414;1357;3051270;-67
2021/11/28 04:30:48;;;;;;;18.00;9.80;;;;;;;9.28;81.08;98523.23;24412;1361;3026696;-71
2021/11/28 04:33:18;;;;;;;17.80;9.60;;;;;;;9.04;82.15;98527.04;24466;1353;3026569;-67
2021/11/28 04:35:48;;;;;;;12.80;7.20;;;;;;;8.88;82.61;98533.18;24424;1355;3026469;-67
2021/11/28 04:38:18;;;;;;;15.40;7.80;;;;;;;9.23;81.56;98532.52;24513;1360;3050874;-69
2021/11/28 04:40:48;;;;;;;14.50;7.80;;;;;;;9.51;80.13;98530.35;24451;1358;3026784;-67
2021/11/28 04:43:17;;;;;;;16.00;7.90;;;;;;;9.55;79.75;98523.27;24424;1357;3026244;-68
2021/11/28 04:45:46;;;;;;;14.10;9.00;;;;;;;9.46;79.70;98526.15;24422;1355;3029008;-71
2021/11/28 04:48:15;;;;;;;18.30;9.10;;;;;;;9.14;80.70;98528.76;24430;1361;3054118;-70
2021/11/28 04:50:44;;;;;;;15.10;7.10;;;;;;;9.00;81.48;98529.73;24403;1358;3029164;-70
2021/11/28 04:53:14;;;;;;;13.00;7.30;;;;;;;9.37;80.41;98530.09;24408;1358;3054704;-71
2021/11/28 04:55:43;;;;;;;12.80;7.50;;;;;;;9.66;78.79;98528.61;24305;1358;3253615;-69
2021/11/28 04:58:14;;;;;;;14.50;7.80;;;;;;;9.48;79.24;98527.98;24454;1354;3026669;-72
2021/11/28 05:00:44;;;;;;;13.50;8.20;;;;;;;9.30;80.03;98530.62;24385;1356;3027526;-69
2021/11/28 05:03:13;;;;;;;13.30;8.50;;;;;;;9.17;80.55;98527.18;24480;1358;3027955;-70
2021/11/28 05:06:02;;;;;;;10.90;6.30;;;;;;;8.95;81.44;98531.13;24458;1353;3054218;-74
2021/11/28 05:08:54;;;;;;;11.90;7.30;;;;;;;9.52;79.64;98527.71;24369;1354;3070981;-70
2021/11/28 05:11:23;;;;;;;17.00;9.20;;;;;;;9.75;78.01;98516.06;24397;1351;3026382;-68
2021/11/28 05:14:04;;;;;;;12.90;8.00;;;;;;;9.48;78.66;98525.13;24401;1353;3055138;-68
2021/11/28 05:16:33;;;;;;;17.00;9.20;;;;;;;9.28;79.59;98524.98;24477;1354;3026545;-72
2021/11/28 05:19:16;;;;;;;16.40;9.30;;;;;;;9.11;80.53;98531.77;24429;1354;3058577;-69
2021/11/28 05:22:09;;;;;;;11.80;7.90;;;;;;;8.90;81.51;98537.58;24392;1354;3051973;-74
2021/11/28 05:24:42;;;;;;;14.00;8.00;;;;;;;9.52;79.53;98535.86;24479;1361;3027104;-71
2021/11/28 05:27:11;;;;;;;13.10;8.30;;;;;;;9.75;78.10;98539.52;24438;1350;3026074;-70
2021/11/28 05:29:41;;;;;;;15.00;8.30;;;;;;;9.60;78.21;98547.22;24396;1360;3030231;-67
2021/11/28 05:32:11;;;;;;;14.10;8.90;;;;;;;9.49;78.21;98541.84;24419;1353;3026672;-72
2021/11/28 05:34:59;;;;;;;17.30;10.10;;;;;;;9.30;79.17;98542.33;24458;1360;3052473;-64
2021/11/28 05:37:48;;;;;;;12.80;7.60;;;;;;;9.14;79.99;98549.55;24405;1358;3052170;-73
2021/11/28 05:40:21;;;;;;;10.90;6.80;;;;;;;9.62;78.71;98556.20;24447;1361;3059191;-70
2021/11/28 05:42:53;;;;;;;16.60;9.40;;;;;;;9.99;77.29;98552.11;24462;1354;3026344;-66
2021/11/28 05:45:24;;;;;;;16.30;10.00;;;;;;;9.78;77.35;98558.86;24457;1351;3027556;-70
2021/11/28 05:48:12;;;;;;;14.70;10.10;;;;;;;9.60;78.12;98561.73;24435;1359;3054378;-74
2021/11/28 05:50:41;;;;;;;17.60;10.20;;;;;;;9.38;78.71;98566.75;24455;1358;3026581;-74
2021/11/28 05:53:11;;;;;;;16.00;8.30;;;;;;;9.22;79.27;98567.17;24438;1355;3052382;-69
2021/11/28 05:55:42;;;;;;;14.50;8.40;;;;;;;9.47;78.85;98576.28;24450;1354;3026840;-73
2021/11/28 05:58:12;;;;;;;18.10;9.30;;;;;;;9.82;77.60;98574.98;24452;1354;3026834;-71
2021/11/28 06:00:42;;;;;;;16.80;8.80;;;;;;;10.01;76.50;98567.69;24461;1351;3026908;-71
2021/11/28 06:03:12;;;;;;;15.90;9.80;;;;;;;9.74;77.36;98571.45;24485;1354;3026763;-71
2021/11/28 06:05:43;;;;;;;16.90;10.30;;;;;;;9.61;77.98;98569.88;24372;1362;3071801;-70
2021/11/28 06:08:47;;;;;;;18.70;10.70;;;;;;;9.38;78.75;98578.10;24453;1347;3048199;-69
2021/11/28 06:11:17;;;;;;;14.20;8.20;;;;;;;9.28;79.26;98577.27;24484;1354;3026437;-71
2021/11/28 06:13:52;;;;;;;17.00;7.90;;;;;;;9.79;77.92;98579.45;24450;1354;3054611;-69
2021/11/28 06:16:22;;;;;;;19.40;9.10;;;;;;;10.04;75.94;98575.36;24440;1355;3026344;-74
2021/11/28 06:19:11;;;;;;;14.70;8.40;;;;;;;9.98;75.91;98579.83;24463;1357;3049910;-74
2021/11/28 06:21:49;;;;;;;15.50;9.40;;;;;;;9.91;76.30;98584.72;24424;1354;3055581;-73
2021/11/28 06:24:21;;;;;;;16.40;10.10;;;;;;;9.50;77.91;98590.24;24480;1353;3026565;-70
2021/11/28 06:26:51;;;;;;;18.30;9.40;;;;;;;9.37;78.88;98586.79;24431;1359;3027627;-67
2021/11/28 06:29:20;;;;;;;10.90;7.30;;;;;;;9.33;79.29;98585.66;24428;1353;3026121;-72
2021/11/28 06:31:50;;;;;;;11.90;6.80;;;;;;;9.81;77.82;98582.99;24442;1353;3026461;-71
2021/11/28 06:34:41;;;;;;;15.00;8.60;;;;;;;10.31;75.61;98583.39;24410;1360;3055010;-71
2021/11/28 06:37:40;;;;;;;35.60;20.30;;;;;;;10.06;75.98;98578.40;24425;1360;3060994;-67
2021/11/28 06:40:34;;;;;;;15.80;9.40;;;;;;;9.91;76.11;98573.50;24353;1354;3051421;-69
2021/11/28 06:43:07;;;;;;;14.50;9.90;;;;;;;9.73;76.40;98576.69;24432;1354;3026627;-68
2021/11/28 06:45:37;;;;;;;19.40;10.00;;;;;;;9.41;77.84;98581.05;24473;1354;3026482;-69
2021/11/28 06:48:08;;;;;;;14.20;8.80;;;;;;;9.31;78.51;98581.38;24465;1357;3027208;-63
2021/11/28 06:50:51;;;;;;;10.80;7.40;;;;;;;9.48;77.95;98582.33;24452;1352;3049366;-70
2021/11/28 06:53:29;;;;;;;15.00;8.10;;;;;;;9.79;76.92;98576.11;24478;1353;3052088;-71
2021/11/28 06:56:23;;;;;;;19.10;10.30;;;;;;;9.78;76.61;98575.16;24438;1354;3056543;-69
2021/11/28 06:59:01;;;;;;;28.20;13.60;;;;;;;9.73;76.93;98575.84;24515;1353;3056853;-71
2021/11/28 07:01:30;;;;;;;21.10;11.40;;;;;;;9.57;77.51;98580.43;24467;1357;3027285;-72
2021/11/28 07:04:25;;;;;;;36.10;17.20;;;;;;;9.64;77.32;98581.17;24453;1358;3055059;-73
2021/11/28 07:07:18;;;;;;;16.30;9.70;;;;;;;9.68;77.68;98580.39;24463;1354;3059470;-70
2021/11/28 07:09:54;;;;;;;15.40;7.30;;;;;;;10.22;76.26;98575.65;24416;1354;3049557;-71
2021/11/28 07:12:23;;;;;;;16.60;9.90;;;;;;;10.52;74.86;98565.77;24485;1354;3028485;-68
2021/11/28 07:14:53;;;;;;;16.70;9.40;;;;;;;10.68;74.25;98560.15;24423;1354;3026506;-70
2021/11/28 07:17:26;;;;;;;15.30;9.50;;;;;;;10.37;74.72;98567.58;24430;1361;3026706;-76
2021/11/28 07:19:58;;;;;;;18.50;10.70;;;;;;;10.10;75.87;98564.96;24414;1361;3026870;-70
2021/11/28 07:23:00;;;;;;;17.80;11.40;;;;;;;9.83;76.82;98566.92;24447;1359;3052371;-66
2021/11/28 07:25:30;;;;;;;17.40;9.50;;;;;;;9.72;77.70;98568.73;24406;1357;3026759;-76
2021/11/28 07:28:01;;;;;;;14.20;8.50;;;;;;;10.08;76.89;98565.80;24437;1357;3026993;-69
2021/11/28 07:30:30;;;;;;;20.60;11.80;;;;;;;10.62;74.87;98560.98;24378;1357;3026871;-71
2021/11/28 07:33:11;;;;;;;21.60;12.30;;;;;;;10.43;74.51;98576.08;24450;1353;3055620;-69
2021/11/28 07:36:08;;;;;;;21.10;12.10;;;;;;;9.91;76.47;98579.81;24437;1353;3055189;-73
2021/11/28 07:38:44;;;;;;;25.50;13.30;;;;;;;9.88;76.72;98578.60;24453;1357;3071453;-70
2021/11/28 07:41:13;;;;;;;22.00;12.90;;;;;;;9.86;76.91;98572.25;24457;1353;3026505;-75
2021/11/28 07:43:55;;;;;;;17.20;10.40;;;;;;;9.84;77.21;98570.67;24412;1361;3056464;-74
2021/11/28 07:46:43;;;;;;;15.90;9.30;;;;;;;10.36;75.55;98560.48;24448;1354;3051472;-72
2021/11/28 07:49:20;;;;;;;14.80;10.10;;;;;;;10.85;73.72;98558.05;24476;1360;3058762;-71
2021/11/28 07:51:50;;;;;;;19.80;12.00;;;;;;;10.85;72.86;98551.41;24488;1358;3026035;-70
2021/11/28 07:54:19;;;;;;;18.20;12.20;;;;;;;10.33;74.32;98554.71;24451;1355;3051571;-72
2021/11/28 07:56:48;;;;;;;21.20;12.00;;;;;;;10.33;74.48;98556.34;24437;1357;3026613;-70
2021/11/28 07:59:37;;;;;;;22.60;13.70;;;;;;;10.08;75.12;98566.01;24415;1354;3052571;-68
2021/11/28 08:02:09;;;;;;;17.40;10.00;;;;;;;9.98;76.07;98566.71;24477;1358;3027421;-68
2021/11/28 08:04:45;;;;;;;15.50;10.20;;;;;;;10.56;74.58;98562.19;24413;1353;3050410;-67
2021/11/28 08:07:33;;;;;;;22.20;13.50;;;;;;;10.96;72.76;98557.73;24410;1360;3071424;-74
2021/11/28 08:10:23;;;;;;;23.50;14.30;;;;;;;10.97;72.55;98559.39;24456;1360;3052246;-75
2021/11/28 08:12:55;;;;;;;22.90;14.10;;;;;;;10.76;73.25;98559.62;24504;1354;3028164;-73
2021/11/28 08:15:44;;;;;;;23.20;15.70;;;;;;;10.60;74.07;98562.59;24425;1357;3053043;-71
2021/11/28 08:18:13;;;;;;;28.10;16.50;;;;;;;10.22;75.53;98573.55;24468;1359;3026458;-72
2021/11/28 08:20:42;;;;;;;23.50;12.20;;;;;;;9.98;76.67;98570.21;24423;1360;3054453;-71
2021/11/28 08:23:11;;;;;;;21.70;13.70;;;;;;;10.35;75.36;98570.52;24403;1357;3026453;-71
2021/11/28 08:25:40;;;;;;;20.20;12.50;;;;;;;10.70;73.59;98560.77;24426;1357;3028984;-72
2021/11/28 08:28:09;;;;;;;22.90;15.00;;;;;;;10.68;72.75;98563.04;24424;1357;3054386;-70
2021/11/28 08:30:40;;;;;;;22.40;15.30;;;;;;;10.26;73.92;98564.51;24423;1358;3026707;-71
2021/11/28 08:33:34;;;;;;;24.10;15.90;;;;;;;9.85;75.41;98569.02;24343;1357;3052596;-71
2021/11/28 08:36:27;;;;;;;25.40;15.30;;;;;;;9.73;75.97;98571.14;24448;1360;3052382;-69
2021/11/28 08:38:56;;;;;;;28.90;17.60;;;;;;;9.67;76.04;98570.48;24447;1357;3026907;-70
2021/11/28 08:41:27;;;;;;;18.00;10.90;;;;;;;9.58;76.58;98572.52;24414;1357;3053035;-73
2021/11/28 08:43:56;;;;;;;21.00;12.90;;;;;;;10.24;75.04;98566.23;24448;1360;3027198;-71
2021/11/28 08:46:28;;;;;;;20.20;14.00;;;;;;;10.48;73.88;98556.04;24445;1363;3026949;-73
2021/11/28 08:48:58;;;;;;;20.60;13.10;;;;;;;10.54;73.68;98550.94;24422;1357;3026338;-72
2021/11/28 08:51:27;;;;;;;26.10;15.30;;;;;;;10.48;73.78;98552.09;24445;1347;3052817;-67
2021/11/28 08:53:58;;;;;;;22.70;15.90;;;;;;;10.07;75.19;98552.79;24448;1358;3026869;-70
2021/11/28 08:56:27;;;;;;;27.80;18.70;;;;;;;9.84;76.61;98549.87;24466;1357;3026897;-66
2021/11/28 08:58:56;;;;;;;20.30;13.70;;;;;;;9.99;76.12;98543.19;24451;1347;3027606;-65
2021/11/28 09:01:25;;;;;;;18.60;11.00;;;;;;;10.38;75.12;98535.44;24443;1357;3026915;-69
2021/11/28 09:03:55;;;;;;;26.70;16.50;;;;;;;10.63;73.49;98543.23;24420;1360;3056073;-66
2021/11/28 09:06:24;;;;;;;30.50;19.30;;;;;;;10.54;73.92;98557.27;24451;1357;3026453;-71
2021/11/28 09:08:54;;;;;;;34.10;21.60;;;;;;;10.31;74.73;98563.98;24453;1355;3027318;-73
2021/11/28 09:11:23;;;;;;;41.50;24.50;;;;;;;10.14;75.31;98561.73;24430;1358;3028103;-71
2021/11/28 09:13:53;;;;;;;51.40;29.10;;;;;;;9.75;76.31;98572.87;24388;1357;3026988;-69
2021/11/28 09:16:24;;;;;;;39.20;21.90;;;;;;;9.44;78.07;98580.19;24410;1360;3028075;-76
2021/11/28 09:19:17;;;;;;;42.00;23.20;;;;;;;10.08;76.25;98572.86;24427;1357;3026697;-69
2021/11/28 09:21:47;;;;;;;47.00;26.10;;;;;;;10.39;74.66;98568.80;24462;1355;3052271;-73
2021/11/28 09:27:13;;;;;;;46.10;25.20;;;;;;;10.34;74.38;98577.08;24470;1363;3051605;-69
2021/11/28 09:29:43;;;;;;;47.60;25.00;;;;;;;10.17;74.92;98574.66;24402;1358;3053448;-71
2021/11/28 09:32:14;;;;;;;56.50;30.60;;;;;;;9.72;76.39;98575.05;24499;1357;3026498;-69
2021/11/28 09:34:44;;;;;;;49.40;26.70;;;;;;;9.43;77.65;98576.52;24442;1357;3026532;-66
2021/11/28 09:37:13;;;;;;;49.30;28.30;;;;;;;9.60;77.26;98574.28;24405;1357;3027156;-70
2021/11/28 09:39:44;;;;;;;58.70;29.50;;;;;;;10.02;76.06;98570.11;24417;1360;3026187;-72
2021/11/28 09:42:22;;;;;;;65.20;32.90;;;;;;;9.95;76.09;98569.59;24468;1362;3066836;-70
2021/11/28 09:44:51;;;;;;;62.00;33.80;;;;;;;9.95;76.23;98571.14;24465;1355;3049745;-67
2021/11/28 09:47:20;;;;;;;75.60;37.60;;;;;;;9.95;76.24;98572.68;24421;1357;3026824;-70
2021/11/28 09:49:50;;;;;;;83.50;39.80;;;;;;;9.92;76.42;98575.91;24408;1354;3070196;-71
2021/11/28 09:52:20;;;;;;;67.60;33.50;;;;;;;9.62;77.58;98577.49;24435;1360;3027163;-72
2021/11/28 09:54:49;;;;;;;68.10;31.60;;;;;;;9.89;77.06;98567.73;24434;1356;3027264;-70
2021/11/28 09:57:19;;;;;;;75.00;35.90;;;;;;;10.42;74.96;98564.91;24411;1361;3026680;-77
2021/11/28 09:59:50;;;;;;;74.60;35.20;;;;;;;10.28;75.41;98573.68;24487;1361;3049207;-72
2021/11/28 10:02:28;;;;;;;91.70;39.60;;;;;;;10.13;75.92;98575.09;24508;1361;3025982;-68
2021/11/28 10:04:59;;;;;;;79.70;35.80;;;;;;;9.99;76.50;98581.30;24412;1361;3055262;-66
2021/11/28 10:07:28;;;;;;;74.80;35.70;;;;;;;9.88;76.82;98578.08;24422;1357;3028619;-71
2021/11/28 10:09:57;;;;;;;61.70;27.30;;;;;;;9.91;76.43;98568.27;24442;1354;3026539;-69
2021/11/28 10:12:31;;;;;;;59.30;27.80;;;;;;;10.42;75.13;98570.52;24444;1357;3054580;-73
2021/11/28 10:15:02;;;;;;;85.00;33.50;;;;;;;10.91;73.15;98568.30;24402;1354;3026100;-70
2021/11/28 10:17:50;;;;;;;80.10;38.60;;;;;;;10.53;73.71;98574.46;24386;1357;3049948;-75
2021/11/28 10:20:22;;;;;;;80.90;36.30;;;;;;;10.47;74.13;98566.16;24432;1358;3026522;-70
2021/11/28 10:22:53;;;;;;;86.80;41.20;;;;;;;10.46;74.27;98560.46;24456;1354;3026599;-69
2021/11/28 10:25:26;;;;;;;79.80;37.80;;;;;;;10.28;74.79;98554.55;24380;1354;3026677;-70
2021/11/28 10:28:02;;;;;;;52.30;25.20;;;;;;;10.15;75.32;98549.54;24468;1360;3054814;-70
2021/11/28 10:30:44;;;;;;;61.00;27.80;;;;;;;10.48;74.31;98546.64;24400;1354;3053201;-65
2021/11/28 10:33:15;;;;;;;53.20;27.00;;;;;;;10.97;72.25;98553.43;24400;1357;3071425;-73
2021/11/28 10:36:04;;;;;;;60.80;29.40;;;;;;;10.82;72.55;98550.21;24434;1357;3026885;-69
2021/11/28 10:38:36;;;;;;;54.00;29.70;;;;;;;10.57;73.46;98544.05;24460;1354;3054136;-69
2021/11/28 10:41:23;;;;;;;59.20;30.20;;;;;;;10.40;74.14;98540.25;24455;1353;3026326;-75
2021/11/28 10:43:52;;;;;;;52.70;30.20;;;;;;;10.02;75.64;98546.30;24415;1357;3061375;-70
2021/11/28 10:46:23;;;;;;;37.60;18.90;;;;;;;9.97;76.35;98555.61;24443;1353;3026349;-70
2021/11/28 10:49:06;;;;;;;37.00;18.70;;;;;;;10.73;74.43;98551.38;24416;1357;3026832;-68
2021/11/28 10:51:38;;;;;;;37.50;20.30;;;;;;;11.28;71.88;98546.91;24394;1354;3051782;-74
2021/11/28 10:54:35;;;;;;;30.50;20.80;;;;;;;11.23;71.65;98554.23;24397;1360;3030140;-68
2021/11/28 10:57:06;;;;;;;35.90;22.00;;;;;;;11.13;72.07;98552.39;24435;1360;3053322;-66
2021/11/28 10:59:36;;;;;;;35.80;22.30;;;;;;;10.87;72.82;98552.30;24434;1354;3028519;-69
2021/11/28 11:02:25;;;;;;;36.20;24.00;;;;;;;10.60;73.90;98549.58;24504;1354;3026981;-73
2021/11/28 11:04:56;;;;;;;37.90;23.30;;;;;;;10.60;73.77;98548.57;24394;1357;3059507;-62
2021/11/28 11:07:25;;;;;;;22.10;14.00;;;;;;;10.48;74.23;98546.61;24461;1354;3028732;-67
2021/11/28 11:09:55;;;;;;;27.40;15.60;;;;;;;10.80;73.63;98549.66;24471;1361;3027234;-67
2021/11/28 11:12:32;;;;;;;28.60;17.40;;;;;;;11.50;71.60;98538.48;24465;1358;3026678;-68
2021/11/28 11:15:06;;;;;;;28.70;19.10;;;;;;;11.58;70.85;98540.98;24380;1360;3071690;-69
2021/11/28 11:17:38;;;;;;;31.10;19.90;;;;;;;11.49;70.75;98538.90;24421;1357;3026503;-68
2021/11/28 11:20:12;;;;;;;33.60;18.90;;;;;;;11.34;71.20;98538.36;24421;1357;3054732;-68
2021/11/28 11:22:42;;;;;;;29.60;18.50;;;;;;;11.24;71.34;98537.34;24453;1357;3026491;-71
2021/11/28 11:25:16;;;;;;;24.90;16.60;;;;;;;11.10;72.02;98536.70;24483;1357;3027126;-71
2021/11/28 11:27:45;;;;;;;17.20;12.60;;;;;;;10.97;72.83;98532.30;24493;1355;3054104;-68
2021/11/28 11:30:15;;;;;;;22.40;11.70;;;;;;;11.40;71.80;98526.95;24445;1361;3026731;-67
2021/11/28 11:32:51;;;;;;;26.70;14.80;;;;;;;12.05;70.21;98529.90;24441;1355;3049099;-69
2021/11/28 11:35:25;;;;;;;23.50;16.30;;;;;;;12.18;69.15;98528.89;24387;1356;3051463;-71
2021/11/28 11:37:58;;;;;;;23.90;15.90;;;;;;;12.10;69.40;98534.65;24453;1355;3052441;-72
2021/11/28 11:40:29;;;;;;;25.20;17.30;;;;;;;11.88;70.03;98529.01;24513;1355;3059750;-72
2021/11/28 11:42:58;;;;;;;24.20;17.20;;;;;;;11.71;70.57;98533.50;24472;1354;3028124;-68
2021/11/28 11:45:38;;;;;;;25.90;17.40;;;;;;;11.57;70.98;98531.04;24454;1357;3027577;-68
2021/11/28 11:48:08;;;;;;;27.80;18.10;;;;;;;11.46;71.39;98525.29;24475;1355;3056480;-68
2021/11/28 11:50:37;;;;;;;21.70;12.30;;;;;;;11.36;71.77;98522.25;24434;1361;3026560;-64